Bookmark and Share
Track history (hours):
 

Captain Koulis

Last reported at 2014-Apr-24 05:33 UTC. Time now 2014-Apr-24 05:56 UTC.
Position N 36°30' E 025°24'.

Length 21 m.

Type: Passenger vessel. MMSI: 239173800.

NotesDate/timePositionNaut miles runAvg speedWind from/ knotsBaromVisibWave heightAir tempDewpointWater temp
2014-Apr-24 05:33N 36°30' E 025°24'7 7.4
2014-Apr-24 04:33N 36°23' E 025°26'2 0.1
2014-Apr-23 11:27N 36°25' E 025°25'1 0.1
2014-Apr-23 06:33N 36°25' E 025°26'1 1.3
2014-Apr-23 05:33N 36°24' E 025°25'0 0.4
2014-Apr-23 04:33N 36°24' E 025°26'16 1.0
2014-Apr-22 11:17N 36°40' E 025°28'1418.4
2014-Apr-22 10:33N 36°52' E 025°35'9 8.8
2014-Apr-22 09:33N 36°45' E 025°29'1818.0
2014-Apr-22 08:33N 36°28' E 025°22'4 4.0
2014-Apr-22 07:32N 36°25' E 025°26'1 0.7
2014-Apr-22 06:33N 36°25' E 025°25'0 0.3
2014-Apr-22 05:32N 36°25' E 025°25'1 1.1
2014-Apr-22 04:32N 36°24' E 025°25'2 0.0
2014-Apr-20 07:18N 36°25' E 025°24'1 1.2
2014-Apr-20 06:33N 36°25' E 025°25'2 1.8
2014-Apr-20 05:32N 36°23' E 025°26'2 1.9
2014-Apr-20 04:33N 36°25' E 025°26'0 0.0
2014-Apr-18 08:33N 36°25' E 025°26'0 0.0
2014-Apr-18 07:33N 36°25' E 025°26'0 0.4
2014-Apr-18 06:33N 36°25' E 025°25'0 0.1
2014-Apr-18 05:33N 36°25' E 025°25'1 0.9
2014-Apr-18 04:32N 36°24' E 025°26'1 0.1
2014-Apr-17 17:33N 36°25' E 025°24'2 1.9
2014-Apr-17 16:32N 36°23' E 025°26'0 0.0
2014-Apr-17 15:33N 36°23' E 025°26'2 1.3
2014-Apr-17 14:20N 36°25' E 025°25'0 0.3
2014-Apr-17 13:32N 36°25' E 025°25'1 0.7
2014-Apr-17 12:33N 36°25' E 025°26'1 0.4
2014-Apr-17 11:05N 36°25' E 025°26'4 5.9
2014-Apr-17 10:26N 36°28' E 025°23'5 5.5
2014-Apr-17 09:33N 36°23' E 025°26'2 1.8
2014-Apr-17 08:32N 36°25' E 025°26'1 1.4
2014-Apr-17 07:33N 36°25' E 025°24'0 0.0
2014-Apr-17 06:32N 36°25' E 025°24'1 0.1
2014-Apr-16 12:22N 36°25' E 025°25'0 0.1
2014-Apr-16 11:30N 36°25' E 025°26'0 0.0
2014-Apr-16 10:17N 36°25' E 025°26'0 0.1
2014-Apr-16 09:16N 36°25' E 025°26'0 0.7
2014-Apr-16 08:33N 36°25' E 025°25'0 0.1
2014-Apr-16 07:30N 36°25' E 025°25'0 0.0
2014-Apr-16 05:30N 36°25' E 025°25'1 1.3
2014-Apr-16 04:33N 36°24' E 025°25'1 1.5
2014-Apr-16 03:33N 36°25' E 025°24'0 0.0
2014-Apr-14 11:33N 36°25' E 025°24'0 0.0
2014-Apr-14 10:33N 36°25' E 025°24'2 1.0
2014-Apr-14 08:32N 36°23' E 025°26'3 1.6
2014-Apr-14 06:33N 36°26' E 025°24'1 1.5
2014-Apr-14 05:33N 36°25' E 025°26'  

Dump ship's entire track history

sailing weather and tide predictions

Captain Koulis — SV5456 — position and weather